TimeEDT,TemperatureF,Dew PointF,Humidity,Sea Level PressureIn,VisibilityMPH,Wind Direction,Wind SpeedMPH,Gust SpeedMPH,PrecipitationIn,Events,Conditions,WindDirDegrees,DateUTC
12:35 AM,55.4,41.0,58,30.05,10.0,NNW,17.3,25.3,N/A,,Mostly Cloudy,330,2013-04-25 04:35:00
12:55 AM,53.6,39.2,58,30.06,10.0,NNW,10.4,17.3,N/A,,Overcast,340,2013-04-25 04:55:00
1:15 AM,53.6,37.4,54,30.07,10.0,NW,20.7,29.9,N/A,,Overcast,320,2013-04-25 05:15:00
1:35 AM,53.6,35.6,51,30.08,10.0,NNW,18.4,25.3,N/A,,Overcast,330,2013-04-25 05:35:00
1:55 AM,51.8,37.4,58,30.09,10.0,NNW,12.7,29.9,N/A,,Overcast,340,2013-04-25 05:55:00
2:15 AM,50.0,35.6,58,30.10,10.0,NNW,10.4,26.5,N/A,,Mostly Cloudy,330,2013-04-25 06:15:00
2:35 AM,48.2,30.2,50,30.11,10.0,NNW,16.1,29.9,N/A,,Overcast,330,2013-04-25 06:35:00
2:55 AM,48.2,30.2,50,30.10,10.0,NNW,12.7,29.9,N/A,,Overcast,330,2013-04-25 06:55:00
3:15 AM,46.4,30.2,53,30.12,10.0,NW,21.9,32.2,N/A,,Overcast,320,2013-04-25 07:15:00
3:35 AM,46.4,30.2,53,30.14,10.0,NW,18.4,26.5,N/A,,Overcast,320,2013-04-25 07:35:00
3:55 AM,46.4,28.4,50,30.15,10.0,NW,16.1,26.5,N/A,,Overcast,320,2013-04-25 07:55:00
4:15 AM,46.4,28.4,50,30.16,10.0,NNW,13.8,26.5,N/A,,Overcast,330,2013-04-25 08:15:00
4:35 AM,44.6,28.4,53,30.18,10.0,NNW,9.2,16.1,N/A,,Mostly Cloudy,330,2013-04-25 08:35:00
4:55 AM,44.6,28.4,53,30.19,10.0,NNW,8.1,-,N/A,,Partly Cloudy,330,2013-04-25 08:55:00
5:15 AM,42.8,28.4,57,30.21,10.0,NNW,9.2,-,N/A,,Clear,330,2013-04-25 09:15:00
5:35 AM,42.8,28.4,57,30.21,10.0,NW,12.7,19.6,N/A,,Clear,320,2013-04-25 09:35:00
5:55 AM,42.8,28.4,57,30.23,10.0,NW,11.5,-,N/A,,Clear,320,2013-04-25 09:55:00
6:15 AM,42.8,30.2,61,30.24,10.0,NNW,6.9,-,N/A,,Clear,330,2013-04-25 10:15:00
6:35 AM,42.8,30.2,61,30.24,10.0,NNW,4.6,-,N/A,,Clear,330,2013-04-25 10:35:00
6:55 AM,42.8,30.2,61,30.25,10.0,NNW,5.8,-,N/A,,Clear,330,2013-04-25 10:55:00
7:15 AM,42.8,30.2,61,30.26,10.0,NNW,6.9,-,N/A,,Clear,340,2013-04-25 11:15:00
7:35 AM,44.6,30.2,57,30.27,10.0,NNW,9.2,-,N/A,,Clear,330,2013-04-25 11:35:00
7:55 AM,44.6,30.2,57,30.28,10.0,NNW,6.9,-,N/A,,Clear,340,2013-04-25 11:55:00
8:15 AM,46.4,30.2,53,30.28,10.0,NNW,12.7,18.4,N/A,,Clear,330,2013-04-25 12:15:00
8:35 AM,46.4,30.2,53,30.29,10.0,NW,9.2,-,N/A,,Clear,320,2013-04-25 12:35:00
8:55 AM,46.4,30.2,53,30.29,10.0,North,4.6,-,N/A,,Clear,350,2013-04-25 12:55:00
9:15 AM,48.2,30.2,50,30.29,10.0,North,3.5,-,N/A,,Clear,360,2013-04-25 13:15:00
9:35 AM,48.2,30.2,50,30.30,10.0,NNW,4.6,-,N/A,,Clear,340,2013-04-25 13:35:00
9:55 AM,48.2,30.2,50,30.30,10.0,North,5.8,-,N/A,,Clear,350,2013-04-25 13:55:00
10:15 AM,50.0,30.2,47,30.30,10.0,NW,13.8,19.6,N/A,,Clear,320,2013-04-25 14:15:00
10:35 AM,51.8,30.2,44,30.30,10.0,NW,9.2,-,N/A,,Clear,320,2013-04-25 14:35:00
10:55 AM,51.8,30.2,44,30.30,10.0,NW,10.4,18.4,N/A,,Clear,320,2013-04-25 14:55:00
11:15 AM,51.8,32.0,47,30.31,10.0,NNE,5.8,-,N/A,,Clear,20,2013-04-25 15:15:00
11:35 AM,53.6,30.2,41,30.30,10.0,WNW,12.7,-,N/A,,Clear,300,2013-04-25 15:35:00
11:55 AM,53.6,30.2,41,30.30,10.0,NW,11.5,17.3,N/A,,Clear,310,2013-04-25 15:55:00
12:15 PM,53.6,30.2,41,30.29,10.0,NW,10.4,-,N/A,,Clear,320,2013-04-25 16:15:00
12:35 PM,55.4,30.2,38,30.29,10.0,NW,8.1,16.1,N/A,,Clear,320,2013-04-25 16:35:00
12:55 PM,55.4,30.2,38,30.28,10.0,North,3.5,-,N/A,,Clear,10,2013-04-25 16:55:00
1:15 PM,55.4,30.2,38,30.28,10.0,NNW,4.6,-,N/A,,Clear,340,2013-04-25 17:15:00
1:35 PM,57.2,30.2,36,30.27,10.0,NW,5.8,-,N/A,,Clear,320,2013-04-25 17:35:00
1:55 PM,57.2,30.2,36,30.26,10.0,Calm,Calm,-,N/A,,Clear,0,2013-04-25 17:55:00
2:15 PM,57.2,30.2,36,30.26,10.0,West,8.1,-,N/A,,Clear,280,2013-04-25 18:15:00
2:35 PM,59.0,30.2,34,30.26,10.0,NW,11.5,-,N/A,,Clear,310,2013-04-25 18:35:00
2:55 PM,59.0,30.2,34,30.25,10.0,NW,10.4,-,N/A,,Clear,320,2013-04-25 18:55:00
3:15 PM,60.8,33.8,36,30.25,10.0,WNW,4.6,-,N/A,,Clear,290,2013-04-25 19:15:00
3:35 PM,59.0,28.4,31,30.25,10.0,WNW,4.6,-,N/A,,Clear,300,2013-04-25 19:35:00
3:55 PM,60.8,28.4,29,30.23,10.0,West,5.8,-,N/A,,Clear,260,2013-04-25 19:55:00
4:15 PM,60.8,28.4,29,30.24,10.0,NW,8.1,-,N/A,,Clear,320,2013-04-25 20:15:00
4:35 PM,60.8,30.2,31,30.23,10.0,NW,4.6,-,N/A,,Clear,310,2013-04-25 20:35:00
4:55 PM,60.8,30.2,31,30.23,10.0,WSW,5.8,-,N/A,,Clear,240,2013-04-25 20:55:00
5:15 PM,60.8,30.2,31,30.23,10.0,NNW,3.5,-,N/A,,Clear,340,2013-04-25 21:15:00
5:35 PM,62.6,28.4,27,30.23,10.0,SW,4.6,-,N/A,,Clear,230,2013-04-25 21:35:00
5:55 PM,60.8,26.6,27,30.23,10.0,WNW,6.9,-,N/A,,Clear,290,2013-04-25 21:55:00
6:15 PM,60.8,28.4,29,30.23,10.0,West,4.6,-,N/A,,Clear,260,2013-04-25 22:15:00
6:35 PM,60.8,28.4,29,30.23,10.0,NNW,3.5,-,N/A,,Clear,330,2013-04-25 22:35:00
6:55 PM,60.8,28.4,29,30.23,10.0,Calm,Calm,-,N/A,,Clear,0,2013-04-25 22:55:00
7:15 PM,60.8,26.6,27,30.24,10.0,Calm,Calm,-,N/A,,Clear,0,2013-04-25 23:15:00
7:35 PM,60.8,26.6,27,30.24,10.0,Calm,Calm,-,N/A,,Clear,0,2013-04-25 23:35:00
7:55 PM,57.2,26.6,31,30.24,10.0,SSE,4.6,-,N/A,,Clear,150,2013-04-25 23:55:00
8:15 PM,55.4,28.4,36,30.24,10.0,SE,3.5,-,N/A,,Clear,140,2013-04-26 00:15:00
8:35 PM,55.4,28.4,36,30.25,10.0,SE,3.5,-,N/A,,Clear,140,2013-04-26 00:35:00
8:55 PM,53.6,28.4,38,30.26,10.0,Calm,Calm,-,N/A,,Clear,0,2013-04-26 00:55:00
9:15 PM,51.8,30.2,44,30.27,10.0,Calm,Calm,-,N/A,,Clear,0,2013-04-26 01:15:00
9:35 PM,51.8,28.4,41,30.28,10.0,Calm,Calm,-,N/A,,Clear,0,2013-04-26 01:35:00
9:55 PM,50.0,30.2,47,30.29,10.0,SE,5.8,-,N/A,,Scattered Clouds,140,2013-04-26 01:55:00
10:15 PM,50.0,33.8,54,30.30,10.0,Calm,Calm,-,N/A,,Mostly Cloudy,0,2013-04-26 02:15:00
10:35 PM,48.2,33.8,58,30.31,10.0,Calm,Calm,-,N/A,,Scattered Clouds,0,2013-04-26 02:35:00
10:55 PM,48.2,35.6,62,30.32,10.0,Calm,Calm,-,N/A,,Mostly Cloudy,0,2013-04-26 02:55:00
11:15 PM,48.2,35.6,62,30.34,10.0,NW,11.5,-,N/A,,Partly Cloudy,320,2013-04-26 03:15:00
11:35 PM,48.2,35.6,62,30.34,10.0,Calm,Calm,-,N/A,,Clear,0,2013-04-26 03:35:00
11:55 PM,48.2,33.8,58,30.34,10.0,Calm,Calm,-,N/A,,Clear,0,2013-04-26 03:55:00